createdAt,value
2023-05-13T00:04:51.094Z,11.52
2023-05-13T00:09:52.834Z,11.26
2023-05-13T00:14:54.434Z,10.94
2023-05-13T00:19:56.152Z,10.84
2023-05-13T00:24:57.763Z,10.84
2023-05-13T00:30:00.011Z,10.74
2023-05-13T00:35:01.764Z,10.80
2023-05-13T00:40:03.807Z,10.70
2023-05-13T00:45:06.486Z,10.92
2023-05-13T00:50:10.240Z,10.89
2023-05-13T00:55:12.130Z,10.70
2023-05-13T01:00:14.360Z,10.59
2023-05-13T01:05:27.173Z,10.61
2023-05-13T01:10:51.408Z,10.35
2023-05-13T01:16:01.528Z,10.51
2023-05-13T01:21:06.471Z,10.28
2023-05-13T01:26:08.235Z,10.03
2023-05-13T01:31:10.959Z,9.98
2023-05-13T01:36:14.399Z,10.05
2023-05-13T01:41:16.304Z,10.08
2023-05-13T01:46:18.691Z,10.21
2023-05-13T01:51:20.645Z,10.10
2023-05-13T01:56:22.455Z,10.00
2023-05-13T02:01:24.575Z,9.83
2023-05-13T02:06:28.182Z,9.76
2023-05-13T02:11:30.035Z,9.64
2023-05-13T02:16:32.690Z,9.70
2023-05-13T02:21:34.906Z,9.73
2023-05-13T02:26:36.578Z,9.57
2023-05-13T02:31:38.222Z,9.48
2023-05-13T02:36:39.902Z,9.46
2023-05-13T02:41:41.798Z,9.12
2023-05-13T02:46:44.255Z,9.05
2023-05-13T02:51:46.284Z,9.20
2023-05-13T02:56:48.187Z,9.28
2023-05-13T03:01:50.128Z,9.16
2023-05-13T03:06:52.940Z,8.99
2023-05-13T03:11:54.609Z,9.11
2023-05-13T03:16:56.300Z,8.91
2023-05-13T03:21:58.065Z,9.13
2023-05-13T03:27:00.097Z,8.90
2023-05-13T03:32:02.234Z,9.05
2023-05-13T03:37:04.137Z,8.64
2023-05-13T03:42:06.855Z,8.87
2023-05-13T03:47:09.107Z,8.97
2023-05-13T03:52:10.789Z,8.81
2023-05-13T03:57:12.606Z,9.28
2023-05-13T04:02:14.682Z,9.23
2023-05-13T04:07:16.354Z,9.12
2023-05-13T04:12:18.200Z,9.02
2023-05-13T04:17:20.139Z,8.95
2023-05-13T04:22:22.097Z,8.97
2023-05-13T04:27:24.680Z,9.04
2023-05-13T04:32:31.882Z,9.06
2023-05-13T04:37:33.838Z,9.23
2023-05-13T04:42:39.584Z,9.47
2023-05-13T04:47:41.401Z,9.59
2023-05-13T04:52:43.251Z,9.73
2023-05-13T04:57:45.584Z,10.05
2023-05-13T05:02:47.422Z,10.40
2023-05-13T05:07:49.260Z,10.46
2023-05-13T05:12:52.587Z,10.47
2023-05-13T05:17:57.218Z,10.53
2023-05-13T05:22:59.694Z,10.77
2023-05-13T05:28:05.356Z,11.37
2023-05-13T05:33:09.157Z,11.09
2023-05-13T05:38:13.571Z,11.33
2023-05-13T05:43:16.803Z,11.65
2023-05-13T05:48:18.853Z,12.62
2023-05-13T05:53:21.946Z,12.72
2023-05-13T05:58:24.043Z,13.23
2023-05-13T06:03:27.190Z,13.68
2023-05-13T06:08:30.916Z,14.38
2023-05-13T06:13:33.286Z,14.97
2023-05-13T06:18:35.094Z,15.50
2023-05-13T06:23:37.827Z,15.58
2023-05-13T06:28:39.622Z,16.19
2023-05-13T06:33:41.284Z,16.37
2023-05-13T06:38:42.964Z,16.88
2023-05-13T06:43:46.604Z,17.17
2023-05-13T06:48:56.785Z,17.32
2023-05-13T06:53:58.935Z,17.33
2023-05-13T06:59:01.695Z,17.67
2023-05-13T07:04:03.489Z,18.10
2023-05-13T07:09:08.482Z,17.78
2023-05-13T07:14:10.366Z,17.73
2023-05-13T07:19:12.217Z,18.07
2023-05-13T07:24:14.612Z,18.42
2023-05-13T07:29:16.346Z,18.31
2023-05-13T07:34:17.957Z,18.69
2023-05-13T07:39:19.601Z,18.66
2023-05-13T07:44:21.611Z,19.00
2023-05-13T07:49:23.189Z,18.99
2023-05-13T07:54:24.828Z,18.87
2023-05-13T07:59:26.502Z,18.79
2023-05-13T08:04:28.322Z,19.07
2023-05-13T08:09:29.994Z,19.54
2023-05-13T08:14:31.652Z,19.51
2023-05-13T08:19:33.447Z,18.89
2023-05-13T08:24:35.055Z,19.15
2023-05-13T08:29:36.643Z,19.45
2023-05-13T08:34:38.325Z,19.10
2023-05-13T08:39:39.890Z,19.23
2023-05-13T08:44:44.405Z,19.16
2023-05-13T08:49:46.647Z,19.35
2023-05-13T08:54:49.088Z,19.60
2023-05-13T08:59:51.315Z,19.94
2023-05-13T09:04:55.315Z,20.30
2023-05-13T09:09:57.762Z,20.15
2023-05-13T09:14:59.423Z,20.05
2023-05-13T09:20:07.680Z,20.91
2023-05-13T09:25:12.830Z,20.81
2023-05-13T09:30:15.074Z,20.77
2023-05-13T09:35:17.080Z,20.38
2023-05-13T09:40:19.135Z,20.23
2023-05-13T09:45:24.019Z,19.83
2023-05-13T09:50:25.939Z,19.68
2023-05-13T09:55:29.006Z,19.80
2023-05-13T10:00:33.130Z,19.44
2023-05-13T10:05:36.464Z,19.78
2023-05-13T10:10:39.116Z,20.40
2023-05-13T10:15:51.535Z,20.54
2023-05-13T10:20:54.055Z,20.70
2023-05-13T10:25:59.295Z,20.87
2023-05-13T10:31:00.908Z,20.98
2023-05-13T10:36:36.928Z,20.85
2023-05-13T10:42:00.027Z,20.61
2023-05-13T10:47:02.869Z,20.90
2023-05-13T10:52:08.471Z,20.97
2023-05-13T10:57:10.515Z,20.79
2023-05-13T11:02:23.610Z,20.65
2023-05-13T11:07:28.588Z,20.25
2023-05-13T11:12:30.385Z,20.07
2023-05-13T11:17:33.998Z,19.65
2023-05-13T11:22:36.962Z,19.18
2023-05-13T11:27:40.471Z,19.34
2023-05-13T11:32:54.149Z,19.45
2023-05-13T11:37:59.113Z,19.72
2023-05-13T11:43:02.150Z,19.59
2023-05-13T11:48:23.772Z,19.46
2023-05-13T11:53:25.445Z,19.30
2023-05-13T11:58:27.425Z,19.02
2023-05-13T12:03:29.050Z,18.69
2023-05-13T12:08:30.736Z,19.02
2023-05-13T12:13:32.404Z,19.26
2023-05-13T12:18:34.541Z,19.37
2023-05-13T12:23:40.820Z,19.25
2023-05-13T12:28:42.729Z,18.92
2023-05-13T12:33:46.860Z,18.74
2023-05-13T12:39:01.672Z,18.98
2023-05-13T12:44:14.294Z,18.98
2023-05-13T12:49:15.924Z,18.83
2023-05-13T12:54:17.924Z,18.97
2023-05-13T12:59:19.572Z,19.09
2023-05-13T13:04:21.247Z,19.05
2023-05-13T13:09:22.965Z,19.16
2023-05-13T13:14:26.116Z,19.19
2023-05-13T13:19:27.802Z,18.83
2023-05-13T13:24:29.504Z,18.74
2023-05-13T13:29:31.163Z,18.47
2023-05-13T13:34:32.794Z,18.33
2023-05-13T13:39:34.940Z,18.72
2023-05-13T13:44:38.347Z,18.67
2023-05-13T13:49:39.999Z,18.62
2023-05-13T13:54:41.743Z,18.58
2023-05-13T13:59:43.389Z,18.59
2023-05-13T14:04:46.456Z,18.60
2023-05-13T14:09:49.739Z,18.27
2023-05-13T14:14:51.343Z,18.18
2023-05-13T14:19:55.108Z,18.13
2023-05-13T14:24:56.839Z,17.88
2023-05-13T14:29:58.998Z,17.83
2023-05-13T14:35:00.663Z,17.79
2023-05-13T14:40:02.572Z,17.84
2023-05-13T14:45:04.737Z,17.57
2023-05-13T14:50:07.087Z,17.66
2023-05-13T14:55:09.190Z,17.53
2023-05-13T15:00:11.669Z,17.39
2023-05-13T15:05:13.708Z,17.22
2023-05-13T15:10:15.880Z,17.35
2023-05-13T15:15:17.520Z,17.45
2023-05-13T15:20:19.321Z,17.58
2023-05-13T15:25:21.212Z,17.51
2023-05-13T15:30:23.334Z,17.31
2023-05-13T15:35:25.206Z,17.34
2023-05-13T15:40:27.054Z,17.14
2023-05-13T15:45:29.110Z,16.74
2023-05-13T15:50:31.085Z,16.44
2023-05-13T15:55:34.065Z,16.42
2023-05-13T16:00:35.896Z,16.59
2023-05-13T16:05:38.709Z,16.62
2023-05-13T16:10:40.303Z,16.65
2023-05-13T16:15:41.963Z,16.61
2023-05-13T16:20:43.593Z,16.50
2023-05-13T16:25:45.461Z,16.39
2023-05-13T16:30:47.120Z,16.37
2023-05-13T16:35:48.737Z,16.38
2023-05-13T16:40:50.405Z,16.29
2023-05-13T16:45:52.050Z,16.05
2023-05-13T16:50:53.890Z,15.99
2023-05-13T16:55:55.559Z,15.73
2023-05-13T17:00:59.222Z,15.72
2023-05-13T17:06:01.291Z,15.33
2023-05-13T17:11:02.900Z,15.32
2023-05-13T17:16:04.929Z,15.20
2023-05-13T17:21:07.012Z,15.08
2023-05-13T17:26:08.812Z,15.01
2023-05-13T17:31:10.602Z,14.96
2023-05-13T17:36:12.231Z,14.92
2023-05-13T17:41:16.688Z,14.83
2023-05-13T17:46:18.335Z,14.80
2023-05-13T17:51:19.920Z,14.77
2023-05-13T17:56:21.574Z,14.79
2023-05-13T18:01:23.451Z,14.69
2023-05-13T18:06:25.072Z,14.68
2023-05-13T18:11:27.346Z,14.67
2023-05-13T18:16:29.179Z,14.66
2023-05-13T18:21:31.672Z,14.62
2023-05-13T18:26:33.558Z,14.74
2023-05-13T18:31:35.250Z,14.67
2023-05-13T18:36:36.920Z,14.68
2023-05-13T18:41:38.548Z,14.50
2023-05-13T18:46:40.347Z,14.51
2023-05-13T18:51:42.136Z,14.50
2023-05-13T18:56:44.093Z,14.46
2023-05-13T19:01:46.554Z,14.36
2023-05-13T19:06:48.271Z,14.25
2023-05-13T19:11:49.951Z,14.22
2023-05-13T19:16:51.875Z,14.24
2023-05-13T19:21:53.613Z,14.33
2023-05-13T19:26:55.278Z,14.48
2023-05-13T19:31:57.161Z,13.80
2023-05-13T19:36:59.119Z,13.69
2023-05-13T19:42:00.892Z,13.67
2023-05-13T19:47:02.844Z,13.65
2023-05-13T19:52:04.868Z,13.63
2023-05-13T19:57:07.983Z,13.36
2023-05-13T20:02:10.373Z,13.27
2023-05-13T20:07:12.082Z,13.22
2023-05-13T20:12:13.656Z,13.36
2023-05-13T20:17:19.820Z,13.43
2023-05-13T20:22:21.831Z,13.30
2023-05-13T20:27:23.529Z,13.05
2023-05-13T20:32:25.255Z,12.92
2023-05-13T20:37:29.792Z,12.59
2023-05-13T20:42:31.926Z,12.70
2023-05-13T20:47:33.616Z,12.66
2023-05-13T20:52:35.355Z,12.44
2023-05-13T20:57:37.089Z,12.45
2023-05-13T21:02:38.982Z,12.45
2023-05-13T21:07:40.798Z,12.27
2023-05-13T21:12:47.108Z,12.45
2023-05-13T21:17:48.756Z,12.22
2023-05-13T21:22:50.379Z,12.20
2023-05-13T21:27:51.991Z,12.19
2023-05-13T21:32:53.891Z,12.26
2023-05-13T21:38:01.431Z,12.54
2023-05-13T21:43:12.924Z,12.68
2023-05-13T21:48:14.917Z,12.48
2023-05-13T21:53:17.054Z,12.58
2023-05-13T21:58:19.433Z,12.43
2023-05-13T22:03:22.369Z,12.44
2023-05-13T22:08:24.073Z,12.45
2023-05-13T22:13:25.789Z,12.36
2023-05-13T22:18:27.594Z,12.37
2023-05-13T22:23:29.261Z,12.00
2023-05-13T22:28:31.139Z,12.18
2023-05-13T22:33:32.810Z,12.43
2023-05-13T22:38:34.425Z,12.15
2023-05-13T22:43:36.040Z,12.06
2023-05-13T22:48:37.662Z,12.17
2023-05-13T22:53:39.303Z,12.25
2023-05-13T22:58:40.975Z,12.43
2023-05-13T23:03:42.756Z,12.32
2023-05-13T23:08:44.404Z,12.12
2023-05-13T23:13:46.049Z,12.20
2023-05-13T23:18:47.714Z,12.18
2023-05-13T23:23:50.391Z,12.05
2023-05-13T23:28:51.964Z,11.92
2023-05-13T23:33:53.614Z,11.87
2023-05-13T23:38:55.318Z,11.92
2023-05-13T23:43:56.906Z,12.11
2023-05-13T23:48:58.534Z,12.42
2023-05-13T23:54:00.889Z,12.27
2023-05-13T23:59:02.612Z,12.25
